.
WxDataArchive / Data Records for 2014-12-12
2014-12-11 December 2014 2014-12-13

Data Records for Friday, 12 December 2014

Time	Temp	Chill	HIndex	Humid	Dewpt	 Wind 	HiWind	WindDir	Rain 	Barom
-----	----	-----	------	-----	-----	------	------	-------	-----	-----
00:00	25.6	25.6	25.6	85	21.7	1	3	270	0.00	30.216 
00:05	25.6	25.6	25.6	85	21.7	1	4	270	0.00	30.216 
00:10	25.4	25.4	25.4	85	21.5	0	3	248	0.00	30.216 
00:15	25.4	25.4	25.4	86	21.8	0	2	248	0.00	30.212 
00:20	25.3	25.3	25.3	86	21.7	0	2	248	0.00	30.212 
00:25	25.3	25.3	25.3	86	21.7	0	1	248	0.00	30.212 
00:30	25.3	25.3	25.3	86	21.7	0	2	248	0.00	30.216 
00:35	25.1	25.1	25.1	86	21.5	0	2	248	0.00	30.216 
00:40	25.1	25.1	25.1	86	21.5	0	1	248	0.00	30.216 
00:45	25.0	25.0	25.0	86	21.4	0	2	248	0.00	30.209 
00:50	25.0	25.0	25.0	86	21.4	0	2	248	0.00	30.209 
00:55	24.8	24.8	24.8	86	21.2	0	1	248	0.00	30.209 
01:00	24.8	24.8	24.8	86	21.2	0	2	248	0.00	30.208 
01:05	24.7	24.7	24.7	87	21.4	0	1	248	0.00	30.208 
01:10	24.7	24.7	24.7	87	21.4	0	2	248	0.00	30.208 
01:15	24.7	24.7	24.7	87	21.4	0	2	248	0.00	30.207 
01:20	24.5	24.5	24.5	87	21.2	0	3	248	0.00	30.207 
01:25	24.5	24.5	24.5	87	21.2	0	4	248	0.00	30.207 
01:30	24.5	24.5	24.5	87	21.2	0	3	248	0.00	30.205 
01:35	24.5	24.5	24.5	87	21.2	0	2	248	0.00	30.205 
01:40	24.5	24.5	24.5	87	21.2	0	2	248	0.00	30.205 
01:45	24.5	24.5	24.5	87	21.2	0	3	248	0.00	30.204 
01:50	24.5	24.5	24.5	88	21.5	0	2	248	0.00	30.204 
01:55	24.5	24.5	24.5	88	21.5	0	2	248	0.00	30.204 
02:00	24.4	24.4	24.4	88	21.4	0	2	248	0.00	30.212 
02:05	24.4	24.4	24.4	88	21.4	0	2	248	0.00	30.212 
02:10	24.4	24.4	24.4	88	21.4	0	2	248	0.00	30.212 
02:15	24.4	24.4	24.4	88	21.4	0	2	248	0.00	30.212 
02:20	24.4	24.4	24.4	88	21.4	0	2	248	0.00	30.212 
02:25	24.4	24.4	24.4	88	21.4	0	3	248	0.00	30.212 
02:30	24.2	24.2	24.2	88	21.2	0	2	248	0.00	30.211 
02:35	24.2	24.2	24.2	88	21.2	0	2	248	0.00	30.211 
02:40	24.2	24.2	24.2	88	21.2	0	1	248	0.00	30.211 
02:45	24.2	24.2	24.2	88	21.2	0	2	248	0.00	30.217 
02:50	24.2	24.2	24.2	88	21.2	0	2	248	0.00	30.217 
02:55	24.2	24.2	24.2	88	21.2	0	2	248	0.00	30.217 
03:00	24.2	24.2	24.2	88	21.2	0	2	248	0.00	30.229 
03:05	24.2	24.2	24.2	88	21.2	0	2	248	0.00	30.229 
03:10	24.2	24.2	24.2	88	21.2	0	2	248	0.00	30.229 
03:15	24.2	24.2	24.2	88	21.2	0	2	248	0.00	30.235 
03:20	24.1	24.1	24.1	88	21.1	0	3	248	0.00	30.235 
03:25	24.1	24.1	24.1	88	21.1	0	1	248	0.00	30.235 
03:30	24.1	24.1	24.1	88	21.1	0	1	248	0.00	30.244 
03:35	24.1	24.1	24.1	88	21.1	0	1	248	0.00	30.244 
03:40	24.1	24.1	24.1	88	21.1	0	3	248	0.00	30.244 
03:45	24.1	24.1	24.1	89	21.3	1	2	248	0.00	30.240 
03:50	24.1	24.1	24.1	89	21.3	1	2	248	0.00	30.240 
03:55	24.1	24.1	24.1	89	21.3	0	2	248	0.00	30.240 
04:00	24.1	24.1	24.1	89	21.3	0	2	248	0.00	30.239 
04:05	24.1	24.1	24.1	89	21.3	0	2	248	0.00	30.239 
04:10	24.2	24.2	24.2	89	21.4	1	2	248	0.00	30.239 
04:15	24.2	24.2	24.2	89	21.4	1	2	248	0.00	30.244 
04:20	24.2	24.2	24.2	89	21.4	1	3	248	0.00	30.244 
04:25	24.2	24.2	24.2	89	21.4	2	3	248	0.00	30.244 
04:30	24.2	24.2	24.2	89	21.4	1	2	248	0.00	30.245 
04:35	24.2	24.2	24.2	89	21.4	1	3	248	0.00	30.245 
04:40	24.2	24.2	24.2	89	21.4	1	3	248	0.00	30.245 
04:45	24.4	24.4	24.4	88	21.4	1	4	248	0.00	30.248 
04:50	24.4	24.4	24.4	88	21.4	1	3	248	0.00	30.248 
04:55	24.4	24.4	24.4	88	21.4	1	3	248	0.00	30.248 
05:00	24.5	24.5	24.5	88	21.5	0	2	248	0.00	30.251 
05:05	24.7	24.7	24.7	88	21.7	0	2	248	0.00	30.251 
05:10	24.7	24.7	24.7	88	21.7	2	4	248	0.00	30.251 
05:15	24.8	24.8	24.8	88	21.8	2	3	270	0.00	30.253 
05:20	25.0	25.0	25.0	88	22.0	0	3	270	0.00	30.253 
05:25	25.0	25.0	25.0	88	22.0	1	4	270	0.00	30.253 
05:30	25.0	25.0	25.0	88	22.0	1	4	270	0.00	30.258 
05:35	25.0	25.0	25.0	88	22.0	1	4	270	0.00	30.258 
05:40	25.1	25.1	25.1	88	22.1	1	9	292	0.00	30.258 
05:45	25.1	25.1	25.1	88	22.1	0	3	292	0.00	30.266 
05:50	25.1	25.1	25.1	88	22.1	0	2	292	0.00	30.266 
05:55	25.1	25.1	25.1	88	22.1	1	3	292	0.00	30.266 
06:00	25.1	25.1	25.1	88	22.1	1	3	270	0.00	30.262 
06:05	25.3	25.3	25.3	88	22.3	1	3	270	0.00	30.262 
06:10	25.3	25.3	25.3	88	22.3	1	3	292	0.00	30.262 
06:15	25.4	25.4	25.4	89	22.6	1	3	270	0.00	30.267 
06:20	25.4	25.4	25.4	89	22.6	1	4	270	0.00	30.267 
06:25	25.4	25.4	25.4	89	22.6	0	3	270	0.00	30.267 
06:30	25.4	25.4	25.4	89	22.6	1	3	270	0.00	30.268 
06:35	25.4	25.4	25.4	89	22.6	1	3	270	0.00	30.268 
06:40	25.4	25.4	25.4	89	22.6	0	2	270	0.00	30.268 
06:45	25.4	25.4	25.4	89	22.6	1	2	270	0.00	30.270 
06:50	25.4	25.4	25.4	89	22.6	1	3	270	0.00	30.270 
06:55	25.4	25.4	25.4	89	22.6	1	3	270	0.00	30.270 
07:00	25.4	25.4	25.4	89	22.6	1	4	270	0.00	30.268 
07:05	25.4	25.4	25.4	89	22.6	0	1	270	0.00	30.268 
07:10	25.4	25.4	25.4	89	22.6	0	1	270	0.00	30.268 
07:15	25.3	25.3	25.3	89	22.5	0	1	270	0.00	30.270 
07:20	25.3	25.3	25.3	89	22.5	0	2	270	0.00	30.270 
07:25	25.3	25.3	25.3	89	22.5	1	3	270	0.00	30.270 
07:30	25.1	25.1	25.1	89	22.3	1	4	270	0.00	30.274 
07:35	25.1	25.1	25.1	89	22.3	1	3	270	0.00	30.274 
07:40	25.3	25.3	25.3	89	22.5	1	3	270	0.00	30.274 
07:45	25.3	25.3	25.3	89	22.5	1	3	270	0.00	30.273 
07:50	25.4	25.4	25.4	89	22.6	0	2	270	0.00	30.273 
07:55	25.4	25.4	25.4	89	22.6	1	3	270	0.00	30.273 
08:00	25.4	25.4	25.4	89	22.6	1	3	270	0.00	30.276 
08:05	25.6	25.6	25.6	90	23.1	1	4	270	0.00	30.276 
08:10	25.6	25.6	25.6	90	23.1	1	3	270	0.00	30.276 
08:15	25.6	25.6	25.6	89	22.8	1	3	270	0.00	30.281 
08:20	25.4	25.4	25.4	89	22.6	1	3	270	0.00	30.281 
08:25	25.1	25.1	25.1	89	22.3	1	3	270	0.00	30.281 
08:30	24.8	24.8	24.8	88	21.8	1	3	270	0.00	30.286 
08:35	24.7	24.7	24.7	88	21.7	1	4	270	0.00	30.286 
08:40	24.7	24.7	24.7	88	21.7	1	3	270	0.00	30.286 
08:45	24.5	24.5	24.5	88	21.5	0	2	270	0.00	30.290 
08:50	24.7	24.7	24.7	88	21.7	1	3	270	0.00	30.290 
08:55	24.7	24.7	24.7	88	21.7	0	2	270	0.00	30.290 
09:00	24.7	24.7	24.7	88	21.7	1	3	270	0.00	30.288 
09:05	24.8	24.8	24.8	88	21.8	0	2	270	0.00	30.288 
09:10	25.0	25.0	25.0	88	22.0	0	2	270	0.00	30.288 
09:15	25.1	25.1	25.1	88	22.1	1	4	338	0.00	30.290 
09:20	25.3	25.3	25.3	87	22.0	1	4	270	0.00	30.290 
09:25	25.4	25.4	25.4	87	22.1	1	4	338	0.00	30.290 
09:30	25.4	25.4	25.4	87	22.1	1	3	292	0.00	30.290 
09:35	25.6	25.6	25.6	87	22.3	1	4	270	0.00	30.290 
09:40	25.7	25.7	25.7	87	22.4	1	4	315	0.00	30.290 
09:45	25.7	25.7	25.7	87	22.4	2	4	292	0.00	30.287 
09:50	25.7	25.7	25.7	87	22.4	2	4	292	0.00	30.287 
09:55	25.7	25.7	25.7	87	22.4	2	4	270	0.00	30.287 
10:00	25.8	25.8	25.8	87	22.5	1	2	270	0.00	30.289 
10:05	26.0	26.0	26.0	87	22.7	1	3	270	0.00	30.289 
10:10	26.1	26.1	26.1	87	22.8	1	4	270	0.00	30.289 
10:15	26.3	26.3	26.3	87	23.0	1	3	270	0.00	30.291 
10:20	26.3	26.3	26.3	87	23.0	1	3	270	0.00	30.291 
10:25	26.4	26.4	26.4	87	23.1	1	3	270	0.00	30.291 
10:30	26.4	26.4	26.4	87	23.1	1	3	270	0.00	30.287 
10:35	26.7	26.7	26.7	87	23.4	1	3	270	0.00	30.287 
10:40	27.0	27.0	27.0	87	23.7	1	5	315	0.00	30.287 
10:45	27.2	27.2	27.2	86	23.6	1	3	292	0.00	30.287 
10:50	27.2	27.2	27.2	86	23.6	1	4	248	0.00	30.287 
10:55	27.3	27.3	27.3	86	23.7	1	3	248	0.00	30.287 
11:00	27.6	27.6	27.6	86	24.0	1	3	248	0.00	30.286 
11:05	27.8	27.8	27.8	85	23.9	2	4	248	0.00	30.286 
11:10	27.6	27.6	27.6	85	23.7	1	3	248	0.00	30.286 
11:15	27.5	27.5	27.5	85	23.6	2	7	292	0.00	30.292 
11:20	27.5	27.5	27.5	85	23.6	2	4	315	0.00	30.292 
11:25	27.6	27.6	27.6	85	23.7	2	3	270	0.00	30.292 
11:30	27.9	27.9	27.9	85	24.0	2	4	270	0.00	30.298 
11:35	27.9	27.9	27.9	85	24.0	1	4	270	0.00	30.298 
11:40	27.8	27.8	27.8	84	23.6	2	4	292	0.00	30.298 
11:45	27.6	27.6	27.6	84	23.4	3	4	270	0.00	30.291 
11:50	27.6	27.6	27.6	85	23.7	2	4	315	0.00	30.291 
11:55	27.9	27.9	27.9	85	24.0	2	4	292	0.00	30.291 
12:00	28.2	28.2	28.2	85	24.3	2	4	270	0.00	30.290 
12:05	28.4	28.4	28.4	85	24.5	2	4	292	0.00	30.290 
12:10	28.5	28.5	28.5	85	24.6	2	3	315	0.00	30.290 
12:15	29.1	29.1	29.1	85	25.2	1	4	270	0.00	30.292 
12:20	29.0	29.0	29.0	84	24.8	2	4	292	0.00	30.292 
12:25	29.0	29.0	29.0	84	24.8	1	4	270	0.00	30.292 
12:30	28.8	28.8	28.8	84	24.6	1	4	270	0.00	30.286 
12:35	29.0	29.0	29.0	85	25.1	1	3	270	0.00	30.286 
12:40	29.0	29.0	29.0	85	25.1	2	4	270	0.00	30.286 
12:45	28.8	28.8	28.8	85	24.9	1	3	270	0.00	30.279 
12:50	28.8	28.8	28.8	85	24.9	2	4	270	0.00	30.279 
12:55	28.8	28.8	28.8	85	24.9	2	6	315	0.00	30.279 
13:00	29.0	29.0	29.0	86	25.3	1	5	270	0.00	30.279 
13:05	29.1	29.1	29.1	86	25.4	1	3	270	0.00	30.279 
13:10	29.3	29.3	29.3	86	25.6	1	4	270	0.00	30.279 
13:15	29.4	29.4	29.4	86	25.7	1	3	270	0.00	30.276 
13:20	29.4	29.4	29.4	85	25.5	2	3	270	0.00	30.276 
13:25	29.5	29.5	29.5	86	25.8	1	3	270	0.00	30.276 
13:30	29.7	29.7	29.7	85	25.8	2	4	270	0.00	30.267 
13:35	29.5	29.5	29.5	85	25.6	2	5	270	0.00	30.267 
13:40	29.4	29.4	29.4	85	25.5	1	4	292	0.00	30.267 
13:45	29.5	29.5	29.5	85	25.6	1	3	292	0.00	30.269 
13:50	29.7	29.7	29.7	85	25.8	1	3	292	0.00	30.269 
13:55	29.7	29.7	29.7	85	25.8	1	3	292	0.00	30.269 
14:00	29.7	29.7	29.7	85	25.8	1	4	270	0.00	30.270 
14:05	29.5	29.5	29.5	85	25.6	1	3	270	0.00	30.270 
14:10	29.5	29.5	29.5	85	25.6	1	3	270	0.00	30.270 
14:15	29.4	29.4	29.4	85	25.5	0	2	270	0.00	30.271 
14:20	29.5	29.5	29.5	85	25.6	1	2	270	0.00	30.271 
14:25	29.4	29.4	29.4	85	25.5	1	3	270	0.00	30.271 
14:30	29.3	29.3	29.3	85	25.4	1	3	270	0.00	30.270 
14:35	29.4	29.4	29.4	85	25.5	1	3	270	0.00	30.270 
14:40	29.1	29.1	29.1	85	25.2	2	4	270	0.00	30.270 
14:45	29.1	29.1	29.1	85	25.2	1	3	270	0.00	30.272 
14:50	29.0	29.0	29.0	85	25.1	2	4	270	0.00	30.272 
14:55	28.8	28.8	28.8	86	25.2	1	3	248	0.00	30.272 
15:00	28.8	28.8	28.8	86	25.2	1	3	248	0.00	30.282 
15:05	28.8	28.8	28.8	86	25.2	1	3	248	0.00	30.282 
15:10	28.8	28.8	28.8	86	25.2	1	3	270	0.00	30.282 
15:15	29.0	29.0	29.0	87	25.6	1	3	270	0.00	30.286 
15:20	29.0	29.0	29.0	87	25.6	0	2	270	0.00	30.286 
15:25	29.0	29.0	29.0	87	25.6	1	5	270	0.00	30.286 
15:30	29.0	29.0	29.0	87	25.6	2	4	315	0.00	30.288 
15:35	28.8	28.8	28.8	87	25.4	1	3	270	0.00	30.288 
15:40	28.8	28.8	28.8	87	25.4	1	3	270	0.00	30.288 
15:45	28.8	28.8	28.8	88	25.7	1	3	270	0.00	30.288 
15:50	29.0	29.0	29.0	88	25.9	1	4	270	0.00	30.288 
15:55	29.0	29.0	29.0	88	25.9	1	3	270	0.00	30.288 
16:00	29.0	29.0	29.0	88	25.9	0	2	270	0.00	30.291 
16:05	28.8	28.8	28.8	88	25.7	1	3	270	0.00	30.291 
16:10	29.0	29.0	29.0	88	25.9	0	2	270	0.00	30.291 
16:15	28.8	28.8	28.8	88	25.7	1	3	270	0.00	30.286 
16:20	28.8	28.8	28.8	88	25.7	1	2	270	0.00	30.286 
16:25	28.8	28.8	28.8	89	26.0	0	2	270	0.00	30.286 
16:30	28.8	28.8	28.8	89	26.0	1	3	248	0.00	30.290 
16:35	28.8	28.8	28.8	89	26.0	1	4	248	0.00	30.290 
16:40	28.8	28.8	28.8	89	26.0	2	4	270	0.00	30.290 
16:45	28.7	28.7	28.7	89	25.9	0	2	270	0.00	30.285 
16:50	28.7	28.7	28.7	89	25.9	1	3	270	0.00	30.285 
16:55	28.7	28.7	28.7	89	25.9	0	3	270	0.00	30.285 
17:00	28.5	28.5	28.5	89	25.7	0	2	270	0.00	30.287 
17:05	28.5	28.5	28.5	89	25.7	0	4	270	0.00	30.287 
17:10	28.5	28.5	28.5	89	25.7	1	2	270	0.00	30.287 
17:15	28.4	28.4	28.4	89	25.6	1	2	270	0.00	30.292 
17:20	28.4	28.4	28.4	89	25.6	0	2	270	0.00	30.292 
17:25	28.4	28.4	28.4	89	25.6	0	2	270	0.00	30.292 
17:30	28.1	28.1	28.1	89	25.3	2	5	270	0.00	30.300 
17:35	27.8	27.8	27.8	89	25.0	1	4	248	0.00	30.300 
17:40	27.6	27.6	27.6	90	25.1	1	3	292	0.00	30.300 
17:45	27.6	27.6	27.6	90	25.1	0	2	292	0.00	30.299 
17:50	27.6	27.6	27.6	90	25.1	0	4	338	0.00	30.299 
17:55	27.5	27.5	27.5	90	25.0	2	3	292	0.00	30.299 
18:00	27.5	27.5	27.5	90	25.0	1	4	292	0.00	30.301 
18:05	27.3	27.3	27.3	90	24.8	1	2	292	0.00	30.301 
18:10	27.3	27.3	27.3	91	25.0	1	3	292	0.00	30.301 
18:15	27.3	27.3	27.3	91	25.0	1	3	292	0.00	30.303 
18:20	27.3	27.3	27.3	91	25.0	1	3	315	0.00	30.303 
18:25	27.3	27.3	27.3	91	25.0	0	3	315	0.00	30.303 
18:30	27.3	27.3	27.3	91	25.0	0	2	315	0.00	30.306 
18:35	27.3	27.3	27.3	91	25.0	0	2	270	0.00	30.306 
18:40	27.3	27.3	27.3	91	25.0	1	3	270	0.00	30.306 
18:45	27.3	27.3	27.3	91	25.0	0	2	270	0.00	30.304 
18:50	27.3	27.3	27.3	91	25.0	1	4	270	0.00	30.304 
18:55	27.2	27.2	27.2	91	24.9	2	4	270	0.00	30.304 
19:00	27.2	27.2	27.2	92	25.2	1	4	292	0.00	30.314 
19:05	27.2	27.2	27.2	92	25.2	1	3	292	0.00	30.314 
19:10	27.2	27.2	27.2	92	25.2	1	4	270	0.00	30.314 
19:15	27.2	27.2	27.2	92	25.2	0	3	270	0.00	30.300 
19:20	27.2	27.2	27.2	92	25.2	0	2	270	0.00	30.300 
19:25	27.2	27.2	27.2	92	25.2	0	1	270	0.00	30.300 
19:30	27.2	27.2	27.2	92	25.2	1	3	270	0.00	30.300 
19:35	27.2	27.2	27.2	92	25.2	1	3	292	0.00	30.300 
19:40	27.2	27.2	27.2	92	25.2	1	3	292	0.00	30.300 
19:45	27.2	27.2	27.2	92	25.2	1	3	292	0.00	30.295 
19:50	27.2	27.2	27.2	92	25.2	0	2	292	0.00	30.295 
19:55	27.2	27.2	27.2	92	25.2	1	3	292	0.00	30.295 
20:00	27.2	27.2	27.2	92	25.2	0	2	315	0.00	30.301 
20:05	27.2	27.2	27.2	92	25.2	1	3	315	0.00	30.301 
20:10	27.2	27.2	27.2	92	25.2	1	4	248	0.00	30.301 
20:15	27.0	27.0	27.0	92	25.0	1	4	270	0.00	30.306 
20:20	27.2	27.2	27.2	92	25.2	1	3	270	0.00	30.306 
20:25	27.2	27.2	27.2	92	25.2	0	3	270	0.00	30.306 
20:30	27.2	27.2	27.2	92	25.2	1	3	270	0.00	30.302 
20:35	27.3	27.3	27.3	93	25.5	1	3	270	0.00	30.302 
20:40	27.3	27.3	27.3	93	25.5	1	3	270	0.00	30.302 
20:45	27.3	27.3	27.3	93	25.5	0	2	270	0.00	30.287 
20:50	27.3	27.3	27.3	93	25.5	0	2	270	0.00	30.287 
20:55	27.3	27.3	27.3	93	25.5	0	2	270	0.00	30.287 
21:00	27.5	27.5	27.5	93	25.7	0	0	---	0.00	30.295 
21:05	27.5	27.5	27.5	93	25.7	0	1	270	0.00	30.295 
21:10	27.5	27.5	27.5	93	25.7	0	1	270	0.00	30.295 
21:15	27.6	27.6	27.6	93	25.8	0	0	---	0.00	30.294 
21:20	27.6	27.6	27.6	93	25.8	0	1	270	0.00	30.294 
21:25	27.8	27.8	27.8	93	26.0	0	1	270	0.00	30.294 
21:30	27.8	27.8	27.8	93	26.0	0	0	---	0.00	30.288 
21:35	27.9	27.9	27.9	93	26.1	0	1	270	0.00	30.288 
21:40	27.9	27.9	27.9	93	26.1	0	1	270	0.00	30.288 
21:45	28.1	28.1	28.1	93	26.3	0	0	---	0.00	30.291 
21:50	28.1	28.1	28.1	93	26.3	0	1	270	0.00	30.291 
21:55	28.2	28.2	28.2	93	26.4	0	0	---	0.00	30.291 
22:00	28.4	28.4	28.4	93	26.6	0	1	270	0.00	30.284 
22:05	28.4	28.4	28.4	93	26.6	0	1	270	0.00	30.284 
22:10	28.5	28.5	28.5	93	26.7	0	1	270	0.00	30.284 
22:15	28.7	28.7	28.7	94	27.2	0	1	270	0.00	30.275 
22:20	28.8	28.8	28.8	94	27.3	0	1	270	0.00	30.275 
22:25	29.0	29.0	29.0	94	27.5	0	1	270	0.00	30.275 
22:30	29.0	29.0	29.0	94	27.5	0	1	270	0.00	30.277 
22:35	29.1	29.1	29.1	94	27.6	0	1	270	0.00	30.277 
22:40	29.1	29.1	29.1	94	27.6	0	0	---	0.00	30.277 
22:45	29.3	29.3	29.3	94	27.8	0	0	---	0.00	30.274 
22:50	29.4	29.4	29.4	94	27.9	0	1	270	0.00	30.274 
22:55	29.5	29.5	29.5	94	28.0	0	0	---	0.00	30.274 
23:00	29.7	29.7	29.7	94	28.2	0	2	270	0.00	30.266 
23:05	29.8	29.8	29.8	94	28.3	0	2	270	0.00	30.266 
23:10	30.0	30.0	30.0	94	28.5	0	2	270	0.00	30.266 
23:15	30.1	30.1	30.1	94	28.6	0	1	270	0.00	30.264 
23:20	30.4	30.4	30.4	94	28.9	0	1	270	0.00	30.264 
23:25	30.6	30.6	30.6	94	29.1	1	10	338	0.00	30.264 
23:30	30.7	30.7	30.7	94	29.2	0	2	315	0.00	30.281 
23:35	30.9	30.9	30.9	94	29.4	0	2	315	0.00	30.281 
23:40	30.9	30.9	30.9	94	29.4	0	2	315	0.00	30.281 
23:45	31.0	31.0	31.0	94	29.5	0	2	315	0.00	30.278 
23:50	31.0	31.0	31.0	94	29.5	0	1	315	0.00	30.278 
23:55	31.0	31.0	31.0	94	29.5	0	1	315	0.00	30.278 

CoCoRaHS
IN-AL-39
A2 Web Hosting
Creative Commons License
GoDaddy
search engine by freefind advanced

loaded 2018-11-17 18:12:50 • last modified 2010-11-18 10:43:29
Privacy PolicyDisclaimer
• wx.awcolley.com is powered by PmWiki v.2002016 •
• all content (unless otherwise noted) © 2018 A W Colley